Kezdőlap
METAR-TAF:

METAR-TAF

Repülőterek :

Aruba, Aruba

földrajzi szélesség: 12-30N, földrajzi hosszúság: 070-01W, magasság: 18 m

Jelenlegi meteorológiai megfigyelések

A jelentés 47 perccel ezelõtt készült, 06:00 UTC
Keleti szél 15 kt
Hőmérséklet 28°C
Páratartalom 79%
Légköri nyomás 1012 hPa
Látótávolság 10 km, vagy több
Szórványos felhőzet 1900 lábon

METAR: TNCA 130600Z 09015KT 9999 SCT019 28/24 Q1012 NOSIG

Idő: 02:47 (06:47 UTC)

Előrejelzés

Az előrejelzés 13-én 00 óra UTC és 13-én 24 óra UTC között érvényes
Keleti szél 19 kt
Látótávolság 10 km, vagy több
Kevés felhő 1800 lábon

TAF: TNCA 1300/1324 10019KT 9999 FEW018

Meteorológiai megfigyelések és előrejelzések több, mint 4000 repülőtéren (METAR és TAF jelentéseket).

A térképen piros és sárga pontok jelzik az elérhető meteorológiai állomásokat.

Mozgassa az egeret a pont fölött, hogy megjelenjen az állomás neve.

Azután kattintson az időjárási megfigyelések és előrejelzések megtekintéséhez.

A térkép megváltoztatása: kattintson a fekete keresztel jelölt zöld gombra ráközelítéshez, a vonallal jelölt zöld gombra távolításhoz, vagy a zöld nyilakra a szomszédos térképek eléréséhez.


METAR-TAF: